createdAt,value
2018-04-13T00:00:42.284Z,96860.69
2018-04-13T00:03:09.868Z,96862.78
2018-04-13T00:05:37.349Z,96865.81
2018-04-13T00:08:04.837Z,96863.91
2018-04-13T00:10:32.327Z,96856.77
2018-04-13T00:12:59.830Z,96846.59
2018-04-13T00:15:27.354Z,96850.79
2018-04-13T00:17:54.843Z,96851.11
2018-04-13T00:20:22.414Z,96853.11
2018-04-13T00:22:49.905Z,96858.92
2018-04-13T00:25:17.385Z,96865.23
2018-04-13T00:27:44.892Z,96860.00
2018-04-13T00:30:12.363Z,96863.02
2018-04-13T00:32:39.835Z,96866.22
2018-04-13T00:35:07.312Z,96867.75
2018-04-13T00:37:34.810Z,96864.58
2018-04-13T00:40:02.316Z,96861.70
2018-04-13T00:42:29.887Z,96858.27
2018-04-13T00:44:57.357Z,96861.20
2018-04-13T00:47:24.985Z,96863.58
2018-04-13T00:49:52.438Z,96866.44
2018-04-13T00:52:19.931Z,96870.95
2018-04-13T00:54:47.442Z,96875.11
2018-04-13T00:57:14.957Z,96871.67
2018-04-13T00:59:42.463Z,96874.69
2018-04-13T01:02:09.994Z,96882.66
2018-04-13T01:04:37.510Z,96883.91
2018-04-13T01:07:05.018Z,96885.20
2018-04-13T01:09:32.564Z,96882.63
2018-04-13T01:12:00.081Z,96878.39
2018-04-13T01:14:27.592Z,96877.84
2018-04-13T01:16:55.132Z,96876.03
2018-04-13T01:19:22.636Z,96874.92
2018-04-13T01:21:50.138Z,96874.94
2018-04-13T01:24:17.780Z,96874.01
2018-04-13T01:26:45.234Z,96872.25
2018-04-13T01:29:12.724Z,96871.25
2018-04-13T01:31:40.210Z,96859.63
2018-04-13T01:34:07.695Z,96859.12
2018-04-13T01:36:35.204Z,96860.47
2018-04-13T01:39:02.778Z,96858.19
2018-04-13T01:41:30.248Z,96858.02
2018-04-13T01:43:57.730Z,96856.02
2018-04-13T01:46:25.233Z,96852.47
2018-04-13T01:48:52.748Z,96864.91
2018-04-13T01:51:20.296Z,96866.96
2018-04-13T01:53:47.783Z,96859.03
2018-04-13T01:56:15.271Z,96865.23
2018-04-13T01:58:42.758Z,96865.03
2018-04-13T02:01:10.248Z,96867.71
2018-04-13T02:03:37.714Z,96865.78
2018-04-13T02:06:05.212Z,96866.69
2018-04-13T02:08:32.721Z,96870.94
2018-04-13T02:11:00.217Z,96871.95
2018-04-13T02:13:27.689Z,96880.98
2018-04-13T02:15:55.192Z,96887.05
2018-04-13T02:18:22.684Z,96892.17
2018-04-13T02:20:50.164Z,96881.20
2018-04-13T02:23:17.668Z,96887.87
2018-04-13T02:25:45.163Z,96881.38
2018-04-13T02:28:12.670Z,96879.64
2018-04-13T02:30:40.169Z,96879.09
2018-04-13T02:33:07.661Z,96881.11
2018-04-13T02:35:35.145Z,96882.20
2018-04-13T02:38:02.648Z,96883.03
2018-04-13T02:40:30.160Z,96898.53
2018-04-13T02:42:57.648Z,96903.01
2018-04-13T02:45:25.138Z,96904.45
2018-04-13T02:47:52.666Z,96909.31
2018-04-13T02:50:20.151Z,96907.31
2018-04-13T02:52:47.665Z,96900.59
2018-04-13T02:55:15.244Z,96903.99
2018-04-13T02:57:42.730Z,96904.31
2018-04-13T03:00:10.211Z,96905.39
2018-04-13T03:02:37.701Z,96901.87
2018-04-13T03:05:05.207Z,96896.94
2018-04-13T03:07:32.701Z,96904.47
2018-04-13T03:10:00.292Z,96903.49
2018-04-13T03:12:27.795Z,96899.62
2018-04-13T03:14:55.278Z,96903.80
2018-04-13T03:17:22.820Z,96908.03
2018-04-13T03:19:50.316Z,96907.55
2018-04-13T03:22:18.624Z,96911.78
2018-04-13T03:24:46.227Z,96912.47
2018-04-13T03:27:13.730Z,96915.72
2018-04-13T03:29:41.214Z,96916.41
2018-04-13T03:32:08.708Z,96919.75
2018-04-13T03:34:36.281Z,96918.28
2018-04-13T03:37:03.768Z,96923.17
2018-04-13T03:39:31.272Z,96918.30
2018-04-13T03:41:58.785Z,96922.56
2018-04-13T03:44:26.258Z,96923.61
2018-04-13T03:46:53.764Z,96924.47
2018-04-13T03:49:21.257Z,96922.02
2018-04-13T03:51:48.748Z,96926.48
2018-04-13T03:54:16.235Z,96924.81
2018-04-13T03:56:43.729Z,96937.45
2018-04-13T03:59:11.193Z,96937.98
2018-04-13T04:01:38.662Z,96941.12
2018-04-13T04:04:06.174Z,96942.10
2018-04-13T04:06:33.669Z,96948.11
2018-04-13T04:09:01.228Z,96946.34
2018-04-13T04:11:28.717Z,96945.56
2018-04-13T04:13:56.203Z,96952.81
2018-04-13T04:16:23.703Z,96959.77
2018-04-13T04:18:51.271Z,96957.31
2018-04-13T04:21:31.484Z,96958.45
2018-04-13T04:24:10.871Z,96964.38
2018-04-13T04:26:48.056Z,96966.89
2018-04-13T04:29:15.592Z,96965.84
2018-04-13T04:31:43.148Z,96964.19
2018-04-13T04:34:10.657Z,96967.11
2018-04-13T04:36:38.138Z,96973.30
2018-04-13T04:39:06.404Z,96980.66
2018-04-13T04:41:33.986Z,96990.62
2018-04-13T04:44:01.473Z,96995.31
2018-04-13T04:46:28.958Z,96992.28
2018-04-13T04:48:56.540Z,97004.76
2018-04-13T04:51:24.062Z,97007.76
2018-04-13T04:53:51.553Z,97011.41
2018-04-13T04:56:19.043Z,97013.05
2018-04-13T04:58:46.522Z,97021.24
2018-04-13T05:01:14.008Z,97028.13
2018-04-13T05:03:41.579Z,97028.81
2018-04-13T05:06:09.034Z,97030.55
2018-04-13T05:08:36.551Z,97036.20
2018-04-13T05:11:04.062Z,97031.07
2018-04-13T05:13:31.629Z,97037.07
2018-04-13T05:15:59.118Z,97041.16
2018-04-13T05:18:26.607Z,97045.79
2018-04-13T05:20:54.165Z,97048.17
2018-04-13T05:23:21.647Z,97047.04
2018-04-13T05:25:49.166Z,97050.53
2018-04-13T05:28:16.661Z,97051.00
2018-04-13T05:30:44.164Z,97047.20
2018-04-13T05:33:11.710Z,97051.63
2018-04-13T05:35:39.179Z,97046.21
2018-04-13T05:38:06.711Z,97046.21
2018-04-13T05:40:34.225Z,97052.03
2018-04-13T05:43:01.717Z,97047.97
2018-04-13T05:45:29.213Z,97051.86
2018-04-13T05:47:56.690Z,97048.95
2018-04-13T05:50:24.172Z,97052.50
2018-04-13T05:52:51.687Z,97051.33
2018-04-13T05:55:19.180Z,97047.79
2018-04-13T05:57:47.120Z,97046.80
2018-04-13T06:00:14.659Z,97041.10
2018-04-13T06:02:42.135Z,97045.95
2018-04-13T06:05:09.637Z,97046.30
2018-04-13T06:07:37.162Z,97046.52
2018-04-13T06:10:04.659Z,97043.86
2018-04-13T06:12:32.346Z,97046.48
2018-04-13T06:15:00.005Z,97050.95
2018-04-13T06:17:27.497Z,97041.94
2018-04-13T06:19:55.228Z,97049.24
2018-04-13T06:22:23.881Z,97045.86
2018-04-13T06:24:52.619Z,97049.24
2018-04-13T06:27:20.110Z,97062.12
2018-04-13T06:29:47.672Z,97062.02
2018-04-13T06:32:15.181Z,97067.44
2018-04-13T06:34:42.791Z,97076.55
2018-04-13T06:37:10.314Z,97078.70
2018-04-13T06:39:37.924Z,97079.93
2018-04-13T06:42:05.415Z,97089.97
2018-04-13T06:44:34.126Z,97083.72
2018-04-13T06:47:01.655Z,97079.02
2018-04-13T06:49:29.147Z,97092.33
2018-04-13T06:51:56.650Z,97098.11
2018-04-13T06:54:24.144Z,97110.47
2018-04-13T06:56:51.638Z,97119.23
2018-04-13T06:59:19.138Z,97124.38
2018-04-13T07:01:46.630Z,97121.38
2018-04-13T07:04:14.121Z,97120.56
2018-04-13T07:06:41.781Z,97125.49
2018-04-13T07:09:09.394Z,97129.83
2018-04-13T07:11:36.887Z,97131.66
2018-04-13T07:14:04.415Z,97134.74
2018-04-13T07:16:32.057Z,97135.13
2018-04-13T07:18:59.622Z,97141.34
2018-04-13T07:21:27.190Z,97146.19
2018-04-13T07:23:54.680Z,97159.83
2018-04-13T07:26:22.177Z,97158.46
2018-04-13T07:28:49.701Z,97161.53
2018-04-13T07:31:17.315Z,97158.48
2018-04-13T07:33:44.801Z,97163.84
2018-04-13T07:36:12.506Z,97167.35
2018-04-13T07:38:40.211Z,97172.73
2018-04-13T07:41:07.729Z,97171.43
2018-04-13T07:43:35.232Z,97177.15
2018-04-13T07:46:02.796Z,97179.23
2018-04-13T07:48:30.260Z,97172.16
2018-04-13T07:50:57.770Z,97175.17
2018-04-13T07:53:25.263Z,97181.19
2018-04-13T07:55:52.735Z,97191.03
2018-04-13T07:58:20.301Z,97189.22
2018-04-13T08:00:47.799Z,97189.89
2018-04-13T08:03:15.347Z,97188.34
2018-04-13T08:05:42.830Z,97199.07
2018-04-13T08:08:10.511Z,97198.17
2018-04-13T08:10:37.930Z,97196.30
2018-04-13T08:13:05.645Z,97201.90
2018-04-13T08:15:33.148Z,97204.36
2018-04-13T08:18:00.715Z,97213.34
2018-04-13T08:20:28.450Z,97209.14
2018-04-13T08:22:55.936Z,97213.77
2018-04-13T08:25:23.559Z,97222.21
2018-04-13T08:27:51.152Z,97222.41
2018-04-13T08:30:18.703Z,97228.55
2018-04-13T08:32:46.253Z,97231.13
2018-04-13T08:35:13.756Z,97243.13
2018-04-13T08:37:41.596Z,97246.53
2018-04-13T08:40:09.136Z,97251.17
2018-04-13T08:42:37.068Z,97263.16
2018-04-13T08:45:04.574Z,97264.72
2018-04-13T08:47:32.070Z,97255.98
2018-04-13T08:49:59.569Z,97266.53
2018-04-13T08:52:27.200Z,97269.58
2018-04-13T08:54:54.765Z,97272.42
2018-04-13T08:57:22.234Z,97285.63
2018-04-13T08:59:49.755Z,97286.59
2018-04-13T09:02:17.247Z,97296.55
2018-04-13T09:04:44.789Z,97297.90
2018-04-13T09:07:12.288Z,97303.52
2018-04-13T09:09:39.793Z,97311.27
2018-04-13T09:12:07.372Z,97317.14
2018-04-13T09:14:39.497Z,97329.05
2018-04-13T09:17:07.063Z,97343.98
2018-04-13T09:19:34.567Z,97350.31
2018-04-13T09:22:02.157Z,97354.61
2018-04-13T09:24:29.964Z,97359.80
2018-04-13T09:26:57.774Z,97361.88
2018-04-13T09:29:25.343Z,97366.03
2018-04-13T09:31:52.870Z,97374.15
2018-04-13T09:34:20.384Z,97390.69
2018-04-13T09:36:47.870Z,97395.45
2018-04-13T09:39:15.411Z,97402.17
2018-04-13T09:41:43.869Z,97406.73
2018-04-13T09:44:11.355Z,97420.47
2018-04-13T09:46:38.887Z,97423.47
2018-04-13T09:49:06.373Z,97429.12
2018-04-13T09:51:33.889Z,97437.09
2018-04-13T09:54:01.391Z,97436.31
2018-04-13T09:56:30.037Z,97445.79
2018-04-13T09:58:57.587Z,97459.55
2018-04-13T10:01:25.163Z,97461.30
2018-04-13T10:04:05.172Z,97463.39
2018-04-13T10:06:32.666Z,97478.27
2018-04-13T10:09:00.137Z,97483.49
2018-04-13T10:11:27.611Z,97481.03
2018-04-13T10:13:55.084Z,97494.48
2018-04-13T10:16:22.630Z,97500.45
2018-04-13T10:18:50.112Z,97507.95
2018-04-13T10:21:17.603Z,97511.08
2018-04-13T10:23:45.092Z,97521.20
2018-04-13T10:26:18.580Z,97531.52
2018-04-13T10:28:46.190Z,97539.73
2018-04-13T10:31:13.693Z,97553.73
2018-04-13T10:33:43.416Z,97555.70
2018-04-13T10:36:11.070Z,97559.94
2018-04-13T10:38:38.578Z,97568.16
2018-04-13T10:41:06.096Z,97572.17
2018-04-13T10:43:33.651Z,97582.86
2018-04-13T10:46:01.154Z,97581.65
2018-04-13T10:48:28.710Z,97589.64
2018-04-13T10:50:56.201Z,97596.95
2018-04-13T10:53:23.708Z,97594.34
2018-04-13T10:55:51.674Z,97606.60
2018-04-13T10:58:19.551Z,97619.17
2018-04-13T11:00:47.072Z,97617.65
2018-04-13T11:03:14.657Z,97626.50
2018-04-13T11:05:42.144Z,97631.12
2018-04-13T11:08:09.791Z,97633.34
2018-04-13T11:10:37.343Z,97646.92
2018-04-13T11:13:04.842Z,97648.84
2018-04-13T11:15:32.341Z,97658.11
2018-04-13T11:17:59.932Z,97663.63
2018-04-13T11:20:27.565Z,97674.11
2018-04-13T11:22:55.104Z,97674.53
2018-04-13T11:25:22.573Z,97677.86
2018-04-13T11:27:50.043Z,97683.90
2018-04-13T11:30:17.588Z,97695.36
2018-04-13T11:32:45.216Z,97699.45
2018-04-13T11:35:13.030Z,97710.98
2018-04-13T11:37:40.531Z,97714.08
2018-04-13T11:43:20.786Z,97724.27
2018-04-13T11:45:48.296Z,97735.27
2018-04-13T11:48:15.783Z,97741.88
2018-04-13T11:50:43.328Z,97746.48
2018-04-13T11:53:10.820Z,97756.81
2018-04-13T11:55:38.316Z,97759.20
2018-04-13T11:58:05.823Z,97761.08
2018-04-13T12:00:33.348Z,97768.66
2018-04-13T12:03:00.858Z,97774.11
2018-04-13T12:05:28.352Z,97785.55
2018-04-13T12:07:55.880Z,97782.02
2018-04-13T12:10:23.381Z,97790.14
2018-04-13T12:12:50.869Z,97792.85
2018-04-13T12:15:18.741Z,97797.31
2018-04-13T12:17:46.249Z,97788.59
2018-04-13T12:20:13.727Z,97797.22
2018-04-13T12:22:41.215Z,97801.14
2018-04-13T12:25:08.711Z,97806.42
2018-04-13T12:27:36.232Z,97814.23
2018-04-13T12:30:03.784Z,97808.61
2018-04-13T12:32:31.282Z,97818.77
2018-04-13T12:34:58.854Z,97826.31
2018-04-13T12:37:26.385Z,97827.59
2018-04-13T12:39:53.863Z,97833.45
2018-04-13T12:42:21.352Z,97843.28
2018-04-13T12:44:48.917Z,97846.94
2018-04-13T12:47:16.389Z,97839.90
2018-04-13T12:49:43.894Z,97858.04
2018-04-13T12:52:11.388Z,97859.37
2018-04-13T12:54:39.176Z,97861.77
2018-04-13T12:57:06.513Z,97866.89
2018-04-13T12:59:34.037Z,97874.50
2018-04-13T13:02:01.533Z,97874.94
2018-04-13T13:04:29.042Z,97884.70
2018-04-13T13:06:56.532Z,97886.91
2018-04-13T13:09:24.034Z,97885.56
2018-04-13T13:11:51.534Z,97889.16
2018-04-13T13:14:19.054Z,97883.59
2018-04-13T13:16:46.540Z,97890.67
2018-04-13T13:19:14.077Z,97881.59
2018-04-13T13:21:41.572Z,97879.94
2018-04-13T13:24:09.133Z,97857.83
2018-04-13T13:26:36.617Z,97881.53
2018-04-13T13:29:04.131Z,97908.25
2018-04-13T13:31:31.655Z,97909.27
2018-04-13T13:33:59.182Z,97915.92
2018-04-13T13:36:26.672Z,97908.94
2018-04-13T13:38:54.162Z,97929.30
2018-04-13T13:41:21.647Z,97934.56
2018-04-13T13:43:49.147Z,97937.02
2018-04-13T13:46:16.642Z,97945.09
2018-04-13T13:48:44.207Z,97949.54
2018-04-13T13:51:11.681Z,97952.52
2018-04-13T13:53:39.170Z,97949.48
2018-04-13T13:56:06.765Z,97950.05
2018-04-13T13:58:34.248Z,97962.53
2018-04-13T14:01:01.739Z,97970.33
2018-04-13T14:03:29.239Z,97985.52
2018-04-13T14:05:56.780Z,97982.70
2018-04-13T14:08:24.296Z,97989.47
2018-04-13T14:10:51.791Z,97991.95
2018-04-13T14:13:19.377Z,97996.70
2018-04-13T14:15:46.906Z,97991.55
2018-04-13T14:18:14.499Z,97996.25
2018-04-13T14:20:41.993Z,97995.36
2018-04-13T14:23:09.529Z,98001.86
2018-04-13T14:25:37.025Z,98000.40
2018-04-13T14:28:04.554Z,98007.17
2018-04-13T14:30:32.078Z,98005.98
2018-04-13T14:32:59.519Z,98014.77
2018-04-13T14:35:27.019Z,98019.03
2018-04-13T14:37:54.527Z,98023.41
2018-04-13T14:40:22.005Z,98018.66
2018-04-13T14:42:49.536Z,98019.24
2018-04-13T14:45:17.082Z,98018.44
2018-04-13T14:47:44.596Z,98023.87
2018-04-13T14:50:12.128Z,98032.62
2018-04-13T14:52:39.782Z,98035.22
2018-04-13T14:55:10.530Z,98033.91
2018-04-13T14:57:38.046Z,98033.76
2018-04-13T15:00:05.541Z,98036.27
2018-04-13T15:02:33.069Z,98037.20
2018-04-13T15:05:00.553Z,98032.80
2018-04-13T15:07:28.072Z,98034.45
2018-04-13T15:09:55.733Z,98038.14
2018-04-13T15:12:23.220Z,98042.52
2018-04-13T15:14:53.768Z,98031.59
2018-04-13T15:17:26.529Z,98037.88
2018-04-13T15:19:54.095Z,98037.92
2018-04-13T15:22:21.636Z,98045.58
2018-04-13T15:24:49.129Z,98044.98
2018-04-13T15:27:16.669Z,98052.42
2018-04-13T15:29:44.262Z,98051.70
2018-04-13T15:32:12.224Z,98054.64
2018-04-13T15:34:39.830Z,98052.61
2018-04-13T15:37:07.333Z,98054.39
2018-04-13T15:39:34.902Z,98055.22
2018-04-13T15:42:02.489Z,98052.25
2018-04-13T15:44:30.021Z,98050.75
2018-04-13T15:46:57.623Z,98053.05
2018-04-13T15:49:25.113Z,98048.20
2018-04-13T15:51:52.889Z,98039.46
2018-04-13T15:54:20.400Z,98040.30
2018-04-13T15:56:47.896Z,98031.75
2018-04-13T15:59:15.381Z,98032.16
2018-04-13T16:01:43.093Z,98031.41
2018-04-13T16:04:11.485Z,98031.57
2018-04-13T16:06:38.951Z,98019.22
2018-04-13T16:09:06.440Z,98024.03
2018-04-13T16:11:33.915Z,98033.62
2018-04-13T16:14:01.424Z,98028.63
2018-04-13T16:16:28.967Z,98024.72
2018-04-13T16:18:56.437Z,98029.34
2018-04-13T16:21:23.925Z,98027.90
2018-04-13T16:23:51.407Z,98021.84
2018-04-13T16:26:18.968Z,98030.42
2018-04-13T16:28:46.470Z,98034.59
2018-04-13T16:31:14.465Z,98028.22
2018-04-13T16:33:42.040Z,98022.82
2018-04-13T16:36:09.512Z,98023.42
2018-04-13T16:38:37.073Z,98015.92
2018-04-13T16:41:04.682Z,98014.72
2018-04-13T16:43:32.180Z,98026.25
2018-04-13T16:45:59.735Z,98031.02
2018-04-13T16:48:27.241Z,98036.13
2018-04-13T16:50:54.749Z,98035.34
2018-04-13T16:53:22.350Z,98035.11
2018-04-13T16:55:49.835Z,98032.98
2018-04-13T16:58:17.342Z,98034.14
2018-04-13T17:00:44.888Z,98034.27
2018-04-13T17:03:12.373Z,98040.47
2018-04-13T17:05:39.851Z,98043.54
2018-04-13T17:08:07.374Z,98047.14
2018-04-13T17:10:34.893Z,98059.92
2018-04-13T17:13:02.446Z,98059.70
2018-04-13T17:15:29.926Z,98052.92
2018-04-13T17:17:58.564Z,98056.36
2018-04-13T17:20:26.070Z,98061.42
2018-04-13T17:22:53.567Z,98060.72
2018-04-13T17:25:21.265Z,98070.81
2018-04-13T17:27:50.116Z,98073.36
2018-04-13T17:30:17.578Z,98074.34
2018-04-13T17:32:45.069Z,98074.36
2018-04-13T17:35:12.548Z,98074.47
2018-04-13T17:37:40.059Z,98077.08
2018-04-13T17:40:10.307Z,98081.52
2018-04-13T17:45:35.655Z,98085.87
2018-04-13T17:48:03.238Z,98104.75
2018-04-13T17:50:30.752Z,98104.55
2018-04-13T17:52:58.417Z,98113.70
2018-04-13T17:55:25.939Z,98115.53
2018-04-13T17:57:53.446Z,98112.83
2018-04-13T18:00:21.017Z,98122.32
2018-04-13T18:02:48.656Z,98114.83
2018-04-13T18:05:17.991Z,98121.52
2018-04-13T18:07:46.294Z,98128.35
2018-04-13T18:10:23.500Z,98130.77
2018-04-13T18:12:52.025Z,98136.95
2018-04-13T18:15:19.560Z,98147.78
2018-04-13T18:17:47.068Z,98153.23
2018-04-13T18:20:14.556Z,98151.06
2018-04-13T18:22:42.094Z,98151.89
2018-04-13T18:25:11.001Z,98155.57
2018-04-13T18:27:38.562Z,98158.89
2018-04-13T18:30:06.167Z,98166.62
2018-04-13T18:32:34.176Z,98166.92
2018-04-13T18:35:06.516Z,98173.54
2018-04-13T18:37:36.925Z,98186.55
2018-04-13T18:40:04.513Z,98188.87
2018-04-13T18:42:37.902Z,98187.75
2018-04-13T18:45:05.429Z,98200.13
2018-04-13T18:47:38.367Z,98197.86
2018-04-13T18:50:17.391Z,98196.94
2018-04-13T18:52:45.508Z,98202.26
2018-04-13T18:55:13.038Z,98197.67
2018-04-13T18:57:40.541Z,98206.72
2018-04-13T19:00:08.156Z,98210.08
2018-04-13T19:02:37.191Z,98211.81
2018-04-13T19:05:07.457Z,98218.80
2018-04-13T19:07:35.664Z,98216.84
2018-04-13T19:10:03.156Z,98221.75
2018-04-13T19:12:30.887Z,98224.98
2018-04-13T19:17:46.665Z,98234.99
2018-04-13T19:23:09.724Z,98240.00
2018-04-13T19:25:37.265Z,98238.05
2018-04-13T19:28:04.743Z,98247.24
2018-04-13T19:30:32.222Z,98248.52
2018-04-13T19:32:59.732Z,98252.38
2018-04-13T19:35:27.214Z,98262.22
2018-04-13T19:37:54.768Z,98254.42
2018-04-13T19:40:22.267Z,98257.44
2018-04-13T19:42:50.275Z,98258.13
2018-04-13T19:45:17.847Z,98262.63
2018-04-13T19:47:45.283Z,98267.33
2018-04-13T19:50:12.791Z,98265.27
2018-04-13T19:52:40.333Z,98263.77
2018-04-13T19:55:07.853Z,98263.97
2018-04-13T19:57:35.351Z,98267.63
2018-04-13T20:00:02.964Z,98265.09
2018-04-13T20:02:30.533Z,98269.54
2018-04-13T20:04:58.258Z,98267.97
2018-04-13T20:07:25.753Z,98278.94
2018-04-13T20:09:53.363Z,98273.02
2018-04-13T20:12:20.857Z,98270.72
2018-04-13T20:14:48.376Z,98261.44
2018-04-13T20:17:15.908Z,98263.22
2018-04-13T20:19:43.381Z,98266.12
2018-04-13T20:22:10.857Z,98260.91
2018-04-13T20:24:38.433Z,98257.39
2018-04-13T20:27:06.004Z,98260.82
2018-04-13T20:29:34.040Z,98263.17
2018-04-13T20:32:01.642Z,98263.61
2018-04-13T20:34:29.154Z,98259.52
2018-04-13T20:36:56.648Z,98264.04
2018-04-13T20:39:24.906Z,98266.45
2018-04-13T20:41:52.605Z,98265.97
2018-04-13T20:44:20.121Z,98269.61
2018-04-13T20:46:47.617Z,98268.75
2018-04-13T20:49:15.121Z,98277.86
2018-04-13T20:51:42.633Z,98271.87
2018-04-13T20:54:10.136Z,98274.05
2018-04-13T20:56:37.654Z,98276.41
2018-04-13T20:59:05.190Z,98284.48
2018-04-13T21:01:32.860Z,98284.19
2018-04-13T21:04:00.393Z,98287.07
2018-04-13T21:06:27.887Z,98288.70
2018-04-13T21:08:55.405Z,98286.67
2018-04-13T21:11:22.939Z,98286.41
2018-04-13T21:13:51.291Z,98287.78
2018-04-13T21:16:18.777Z,98287.09
2018-04-13T21:18:46.373Z,98292.02
2018-04-13T21:21:13.846Z,98292.77
2018-04-13T21:23:41.349Z,98288.73
2018-04-13T21:26:08.843Z,98287.33
2018-04-13T21:28:36.363Z,98292.34
2018-04-13T21:31:03.849Z,98287.92
2018-04-13T21:33:31.357Z,98287.80
2018-04-13T21:35:58.837Z,98292.42
2018-04-13T21:38:26.363Z,98298.30
2018-04-13T21:40:53.936Z,98294.77
2018-04-13T21:43:21.934Z,98298.38
2018-04-13T21:45:49.463Z,98311.09
2018-04-13T21:48:16.957Z,98309.30
2018-04-13T21:50:44.440Z,98312.71
2018-04-13T21:53:11.906Z,98314.47
2018-04-13T21:55:39.389Z,98318.89
2018-04-13T21:58:06.939Z,98314.65
2018-04-13T22:00:34.466Z,98327.92
2018-04-13T22:03:01.961Z,98327.13
2018-04-13T22:05:29.462Z,98333.58
2018-04-13T22:07:57.003Z,98328.81
2018-04-13T22:10:24.498Z,98324.66
2018-04-13T22:13:03.904Z,98333.05
2018-04-13T22:15:31.464Z,98333.28
2018-04-13T22:17:58.967Z,98338.41
2018-04-13T22:20:26.524Z,98339.19
2018-04-13T22:22:54.007Z,98347.70
2018-04-13T22:25:21.508Z,98351.68
2018-04-13T22:27:49.108Z,98352.50
2018-04-13T22:30:16.610Z,98351.75
2018-04-13T22:32:44.167Z,98358.89
2018-04-13T22:35:11.646Z,98363.41
2018-04-13T22:37:39.666Z,98356.48
2018-04-13T22:40:07.337Z,98362.78
2018-04-13T22:42:34.914Z,98366.27
2018-04-13T22:45:02.409Z,98368.56
2018-04-13T22:47:29.926Z,98362.44
2018-04-13T22:49:57.461Z,98351.62
2018-04-13T22:52:25.192Z,98366.02
2018-04-13T22:54:52.677Z,98361.83
2018-04-13T22:57:20.164Z,98368.32
2018-04-13T22:59:47.675Z,98372.05
2018-04-13T23:02:15.553Z,98374.22
2018-04-13T23:04:43.074Z,98380.60
2018-04-13T23:07:10.570Z,98377.67
2018-04-13T23:09:38.049Z,98375.70
2018-04-13T23:12:05.558Z,98376.77
2018-04-13T23:14:33.057Z,98375.92
2018-04-13T23:17:00.554Z,98379.52
2018-04-13T23:19:28.079Z,98383.55
2018-04-13T23:21:55.586Z,98383.17
2018-04-13T23:24:23.195Z,98380.64
2018-04-13T23:26:50.706Z,98383.45
2018-04-13T23:29:18.180Z,98390.97
2018-04-13T23:31:45.654Z,98388.97
2018-04-13T23:34:13.154Z,98400.09
2018-04-13T23:36:40.644Z,98390.77
2018-04-13T23:39:08.129Z,98392.02
2018-04-13T23:41:35.646Z,98396.24
2018-04-13T23:44:03.146Z,98400.45
2018-04-13T23:46:30.639Z,98394.75
2018-04-13T23:48:58.125Z,98402.48
2018-04-13T23:51:25.668Z,98404.52
2018-04-13T23:53:53.160Z,98407.59
2018-04-13T23:56:20.649Z,98412.66
2018-04-13T23:58:48.148Z,98413.32
